Terminal Aerodrome Forecast
Issued by NWS Tallahassee, FL

Current Version | Previous Version | Text Only | Print | Product List | Glossary On
Versions: 1 2 3 4 5 6 7 8 9 10 11 12 13 14 15 16 17 18 19
147
FTUS42 KTAE 280557 CCA
TAFTLH
TAF COR
KTLH 280557Z 2806/2906 00000KT 3SM BR BKN004
      TEMPO 2806/2810 1/2SM FG SCT003
     FM281000 VRB02KT 1/2SM FG BKN001
     FM281400 23007KT P6SM SCT250=

USA.gov is the U.S. government's official web portal to all federal, state and local government web resources and services.